createdAt,value
2022-10-13T00:00:43.016Z,95492.78
2022-10-13T00:01:39.742Z,95505.72
2022-10-13T00:02:36.424Z,95435.06
2022-10-13T00:03:33.116Z,95474.59
2022-10-13T00:04:29.821Z,95500.13
2022-10-13T00:05:26.841Z,95501.72
2022-10-13T00:06:26.108Z,95466.06
2022-10-13T00:07:22.815Z,95494.41
2022-10-13T00:08:21.970Z,95478.59
2022-10-13T00:09:18.662Z,95391.81
2022-10-13T00:10:15.366Z,95486.31
2022-10-13T00:11:15.425Z,95502.13
2022-10-13T00:12:12.131Z,95492.81
2022-10-13T00:13:09.086Z,95496.88
2022-10-13T00:14:05.801Z,95344.50
2022-10-13T00:15:02.557Z,95309.84
2022-10-13T00:16:02.490Z,95510.00
2022-10-13T00:16:59.189Z,95495.25
2022-10-13T00:17:55.901Z,95487.38
2022-10-13T00:18:52.892Z,95458.19
2022-10-13T00:19:49.615Z,95483.53
2022-10-13T00:20:49.713Z,95447.25
2022-10-13T00:21:46.539Z,95487.56
2022-10-13T00:22:43.229Z,95505.59
2022-10-13T00:23:40.050Z,95422.31
2022-10-13T00:24:36.873Z,95416.03
2022-10-13T00:25:33.568Z,95488.78
2022-10-13T00:26:30.252Z,95463.66
2022-10-13T00:27:26.983Z,95490.59
2022-10-13T00:28:23.730Z,95474.19
2022-10-13T00:29:20.483Z,95490.94
2022-10-13T00:30:17.226Z,95480.19
2022-10-13T00:31:21.258Z,95475.34
2022-10-13T00:32:19.061Z,95491.56
2022-10-13T00:33:16.049Z,95465.44
2022-10-13T00:34:13.058Z,95467.84
2022-10-13T00:35:10.434Z,95479.00
2022-10-13T00:36:07.287Z,95467.28
2022-10-13T00:37:04.746Z,95449.88
2022-10-13T00:38:01.453Z,95447.16
2022-10-13T00:38:58.886Z,95495.19
2022-10-13T00:39:55.659Z,95433.38
2022-10-13T00:40:55.119Z,95479.81
2022-10-13T00:41:51.869Z,95414.59
2022-10-13T00:42:48.537Z,95483.06
2022-10-13T00:43:51.026Z,95472.94
2022-10-13T00:45:00.826Z,95464.41
2022-10-13T00:45:57.565Z,95483.84
2022-10-13T00:46:54.258Z,95476.97
2022-10-13T00:47:58.315Z,95468.84
2022-10-13T00:48:56.989Z,95412.31
2022-10-13T00:49:56.043Z,95469.44
2022-10-13T00:50:54.060Z,95490.72
2022-10-13T00:51:51.343Z,95439.88
2022-10-13T00:52:51.355Z,95412.84
2022-10-13T00:53:48.993Z,95480.38
2022-10-13T00:54:48.353Z,95473.69
2022-10-13T00:55:47.691Z,95480.56
2022-10-13T00:56:47.366Z,95446.94
2022-10-13T00:57:48.413Z,95479.19
2022-10-13T00:58:48.509Z,95416.16
2022-10-13T00:59:45.344Z,95488.50
2022-10-13T01:00:47.003Z,95496.34
2022-10-13T01:01:43.736Z,95460.91
2022-10-13T01:02:40.508Z,95477.34
2022-10-13T01:03:38.637Z,95428.34
2022-10-13T01:04:43.364Z,95297.09
2022-10-13T01:05:42.801Z,95467.22
2022-10-13T01:06:41.260Z,95444.53
2022-10-13T01:07:38.058Z,95486.06
2022-10-13T01:08:35.170Z,95430.31
2022-10-13T01:09:37.664Z,95472.72
2022-10-13T01:10:55.269Z,95344.50
2022-10-13T01:12:06.810Z,95279.34
2022-10-13T01:13:23.421Z,95436.53
2022-10-13T01:14:30.587Z,95457.19
2022-10-13T01:15:27.258Z,95453.94
2022-10-13T01:16:48.050Z,95460.78
2022-10-13T01:18:21.016Z,95390.63
2022-10-13T01:19:51.074Z,95458.50
2022-10-13T01:20:59.624Z,95441.66
2022-10-13T01:22:18.375Z,95460.31
2022-10-13T01:23:43.068Z,95460.41
2022-10-13T01:24:51.782Z,95460.41
2022-10-13T01:26:26.165Z,95459.97
2022-10-13T01:27:46.457Z,95444.16
2022-10-13T01:28:46.055Z,95460.81
2022-10-13T01:30:04.121Z,95460.63
2022-10-13T01:31:31.916Z,95446.22
2022-10-13T01:32:47.462Z,95472.94
2022-10-13T01:34:09.868Z,95343.09
2022-10-13T01:35:12.111Z,95456.75
2022-10-13T01:36:17.514Z,95467.28
2022-10-13T01:37:34.816Z,95462.38
2022-10-13T01:38:57.717Z,95454.22
2022-10-13T01:40:29.186Z,95463.63
2022-10-13T01:41:35.883Z,95440.53
2022-10-13T01:42:53.776Z,95388.44
2022-10-13T01:43:55.959Z,95476.19
2022-10-13T01:45:00.430Z,95449.19
2022-10-13T01:46:08.881Z,95473.97
2022-10-13T01:47:09.530Z,95408.63
2022-10-13T01:48:09.741Z,95476.94
2022-10-13T01:49:12.542Z,95474.75
2022-10-13T01:50:09.697Z,95324.00
2022-10-13T01:51:12.415Z,95451.81
2022-10-13T01:52:17.951Z,95472.03
2022-10-13T01:53:18.257Z,95426.59
2022-10-13T01:54:14.998Z,95387.28
2022-10-13T01:55:13.268Z,95459.25
2022-10-13T01:56:10.008Z,95471.25
2022-10-13T01:57:34.147Z,95455.28
2022-10-13T01:58:35.157Z,95492.66
2022-10-13T01:59:36.392Z,95474.00
2022-10-13T02:00:43.980Z,95427.78
2022-10-13T02:02:00.112Z,95451.34
2022-10-13T02:03:26.658Z,95418.09
2022-10-13T02:05:12.304Z,95445.81
2022-10-13T02:06:08.946Z,95450.91
2022-10-13T02:07:28.178Z,95448.81
2022-10-13T02:08:30.546Z,95429.41
2022-10-13T02:09:41.287Z,95324.00
2022-10-13T02:10:58.775Z,95372.34
2022-10-13T02:12:17.512Z,95465.66
2022-10-13T02:13:21.866Z,95407.75
2022-10-13T02:14:26.402Z,95465.38
2022-10-13T02:15:39.185Z,95471.66
2022-10-13T02:16:41.958Z,95422.41
2022-10-13T02:17:41.587Z,95461.91
2022-10-13T02:18:38.506Z,95433.44
2022-10-13T02:19:38.906Z,95457.41
2022-10-13T02:20:37.071Z,95420.66
2022-10-13T02:21:35.257Z,95268.13
2022-10-13T02:22:40.827Z,95455.03
2022-10-13T02:23:37.876Z,95415.06
2022-10-13T02:24:34.788Z,95460.84
2022-10-13T02:25:33.864Z,95448.03
2022-10-13T02:26:56.686Z,95437.50
2022-10-13T02:27:53.699Z,95450.28
2022-10-13T02:28:50.736Z,95457.78
2022-10-13T02:29:57.298Z,95439.13
2022-10-13T02:30:54.026Z,95411.22
2022-10-13T02:31:50.768Z,95446.25
2022-10-13T02:32:47.525Z,95453.34
2022-10-13T02:33:44.220Z,95437.88
2022-10-13T02:34:40.913Z,95396.16
2022-10-13T02:35:38.316Z,95263.31
2022-10-13T02:36:37.891Z,95453.88
2022-10-13T02:37:34.738Z,95445.31
2022-10-13T02:38:31.458Z,95348.94
2022-10-13T02:39:28.161Z,95446.53
2022-10-13T02:40:25.315Z,95358.06
2022-10-13T02:41:22.023Z,95419.66
2022-10-13T02:42:19.318Z,95370.59
2022-10-13T02:43:16.656Z,95384.38
2022-10-13T02:44:13.372Z,95418.63
2022-10-13T02:45:10.624Z,95370.25
2022-10-13T02:46:07.339Z,95401.50
2022-10-13T02:47:04.012Z,95392.00
2022-10-13T02:48:00.712Z,95447.75
2022-10-13T02:48:57.715Z,95387.00
2022-10-13T02:49:54.418Z,95423.50
2022-10-13T02:50:51.114Z,95462.75
2022-10-13T02:51:47.805Z,95425.94
2022-10-13T02:52:44.496Z,95444.13
2022-10-13T02:53:41.209Z,95422.06
2022-10-13T02:54:37.919Z,95446.59
2022-10-13T02:55:34.602Z,95435.31
2022-10-13T02:56:31.325Z,95421.53
2022-10-13T02:57:28.135Z,95439.97
2022-10-13T02:58:25.127Z,95391.53
2022-10-13T02:59:21.833Z,95355.44
2022-10-13T03:00:18.675Z,95436.47
2022-10-13T03:01:16.308Z,95428.00
2022-10-13T03:02:13.011Z,95439.09
2022-10-13T03:03:11.676Z,95417.75
2022-10-13T03:04:09.832Z,95439.59
2022-10-13T03:05:06.758Z,95438.16
2022-10-13T03:06:03.946Z,95414.88
2022-10-13T03:07:00.772Z,95398.31
2022-10-13T03:07:57.473Z,95439.03
2022-10-13T03:08:54.162Z,95425.53
2022-10-13T03:09:50.945Z,95427.66
2022-10-13T03:10:47.637Z,95258.94
2022-10-13T03:11:44.318Z,95295.63
2022-10-13T03:12:41.035Z,95444.63
2022-10-13T03:13:37.923Z,95451.31
2022-10-13T03:14:34.989Z,95373.97
2022-10-13T03:15:31.682Z,95257.97
2022-10-13T03:16:28.537Z,95437.34
2022-10-13T03:17:25.827Z,95392.28
2022-10-13T03:18:22.548Z,95377.28
2022-10-13T03:19:19.366Z,95354.88
2022-10-13T03:20:16.436Z,95397.63
2022-10-13T03:21:13.131Z,95424.13
2022-10-13T03:22:10.156Z,95463.59
2022-10-13T03:23:09.714Z,95441.47
2022-10-13T03:24:06.914Z,95429.25
2022-10-13T03:25:04.164Z,95459.06
2022-10-13T03:26:01.242Z,95462.03
2022-10-13T03:26:57.961Z,95457.84
2022-10-13T03:27:57.495Z,95386.03
2022-10-13T03:28:54.203Z,95383.28
2022-10-13T03:29:50.878Z,95444.44
2022-10-13T03:30:47.686Z,95458.59
2022-10-13T03:31:44.922Z,95450.06
2022-10-13T03:32:41.692Z,95403.03
2022-10-13T03:33:40.200Z,95444.97
2022-10-13T03:34:37.005Z,95456.50
2022-10-13T03:35:33.938Z,95413.78
2022-10-13T03:36:30.962Z,95423.69
2022-10-13T03:37:30.122Z,95442.09
2022-10-13T03:38:26.877Z,95459.50
2022-10-13T03:39:23.546Z,95399.75
2022-10-13T03:40:20.251Z,95465.41
2022-10-13T03:41:19.047Z,95442.50
2022-10-13T03:42:15.788Z,95430.84
2022-10-13T03:43:12.485Z,95477.88
2022-10-13T03:44:12.860Z,95425.69
2022-10-13T03:45:10.728Z,95414.63
2022-10-13T03:46:08.893Z,95433.19
2022-10-13T03:47:05.801Z,95439.31
2022-10-13T03:48:02.492Z,95261.63
2022-10-13T03:48:59.710Z,95449.16
2022-10-13T03:49:56.586Z,95453.25
2022-10-13T03:50:54.217Z,95299.16
2022-10-13T03:51:51.008Z,95378.63
2022-10-13T03:52:47.679Z,95446.47
2022-10-13T03:53:46.072Z,95371.69
2022-10-13T03:54:42.813Z,95446.53
2022-10-13T03:55:39.479Z,95434.72
2022-10-13T03:56:36.393Z,95438.59
2022-10-13T03:57:33.205Z,95424.97
2022-10-13T03:58:30.140Z,95451.84
2022-10-13T03:59:31.813Z,95446.34
2022-10-13T04:00:32.561Z,95420.59
2022-10-13T04:01:30.525Z,95296.97
2022-10-13T04:02:27.679Z,95399.06
2022-10-13T04:03:24.702Z,95446.63
2022-10-13T04:04:21.614Z,95447.41
2022-10-13T04:05:18.338Z,95426.88
2022-10-13T04:06:15.251Z,95409.97
2022-10-13T04:07:11.982Z,95337.53
2022-10-13T04:08:08.886Z,95242.38
2022-10-13T04:09:06.440Z,95365.78
2022-10-13T04:10:03.393Z,95445.22
2022-10-13T04:11:06.429Z,95448.25
2022-10-13T04:12:03.626Z,95429.25
2022-10-13T04:13:00.345Z,95236.81
2022-10-13T04:13:58.161Z,95396.59
2022-10-13T04:14:54.920Z,95436.50
2022-10-13T04:15:51.774Z,95424.38
2022-10-13T04:16:48.512Z,95248.28
2022-10-13T04:17:45.338Z,95400.84
2022-10-13T04:18:44.834Z,95392.09
2022-10-13T04:19:41.768Z,95421.44
2022-10-13T04:20:40.183Z,95440.94
2022-10-13T04:21:36.965Z,95449.97
2022-10-13T04:22:33.663Z,95429.38
2022-10-13T04:23:30.369Z,95428.31
2022-10-13T04:24:27.167Z,95436.19
2022-10-13T04:25:23.887Z,95408.53
2022-10-13T04:26:23.857Z,95428.72
2022-10-13T04:27:23.387Z,95434.97
2022-10-13T04:28:20.158Z,95419.47
2022-10-13T04:29:16.970Z,95433.28
2022-10-13T04:30:14.803Z,95408.53
2022-10-13T04:31:11.617Z,95365.66
2022-10-13T04:32:08.238Z,95440.72
2022-10-13T04:33:05.400Z,95436.09
2022-10-13T04:34:02.134Z,95357.25
2022-10-13T04:34:58.839Z,95422.97
2022-10-13T04:35:56.062Z,95397.59
2022-10-13T04:36:52.848Z,95425.28
2022-10-13T04:37:52.418Z,95264.19
2022-10-13T04:38:49.909Z,95363.91
2022-10-13T04:39:46.636Z,95291.75
2022-10-13T04:40:43.302Z,95435.22
2022-10-13T04:41:40.002Z,95429.97
2022-10-13T04:42:36.738Z,95441.88
2022-10-13T04:43:33.946Z,95414.56
2022-10-13T04:44:31.153Z,95381.53
2022-10-13T04:45:28.187Z,95438.44
2022-10-13T04:46:27.362Z,95427.53
2022-10-13T04:47:24.052Z,95439.25
2022-10-13T04:48:20.734Z,95425.16
2022-10-13T04:49:17.480Z,95433.63
2022-10-13T04:50:14.324Z,95419.47
2022-10-13T04:51:17.813Z,95442.34
2022-10-13T04:52:14.516Z,95358.28
2022-10-13T04:53:15.371Z,95430.66
2022-10-13T04:54:14.949Z,95343.22
2022-10-13T04:55:11.646Z,95441.69
2022-10-13T04:56:11.718Z,95433.88
2022-10-13T04:57:08.400Z,95351.78
2022-10-13T04:58:05.097Z,95439.66
2022-10-13T04:59:05.225Z,95340.72
2022-10-13T05:00:01.988Z,95444.47
2022-10-13T05:00:58.987Z,95397.81
2022-10-13T05:01:55.864Z,95450.88
2022-10-13T05:02:52.667Z,95444.00
2022-10-13T05:03:57.062Z,95453.75
2022-10-13T05:04:53.764Z,95433.09
2022-10-13T05:05:50.947Z,95448.22
2022-10-13T05:07:16.435Z,95457.50
2022-10-13T05:08:04.726Z,95444.38
2022-10-13T05:09:02.197Z,95349.25
2022-10-13T05:09:58.893Z,95456.00
2022-10-13T05:11:02.287Z,95449.63
2022-10-13T05:11:59.039Z,95456.06
2022-10-13T05:12:55.733Z,95459.44
2022-10-13T05:13:52.688Z,95443.94
2022-10-13T05:14:49.485Z,95451.00
2022-10-13T05:15:46.189Z,94969.66
2022-10-13T05:16:42.887Z,95440.06
2022-10-13T05:17:39.636Z,95441.56
2022-10-13T05:18:37.495Z,95460.13
2022-10-13T05:19:34.202Z,95423.34
2022-10-13T05:20:30.888Z,95455.22
2022-10-13T05:21:29.565Z,95423.34
2022-10-13T05:22:28.038Z,95344.41
2022-10-13T05:23:25.218Z,95433.31
2022-10-13T05:24:31.051Z,95369.66
2022-10-13T05:25:31.537Z,95477.88
2022-10-13T05:26:32.044Z,95458.00
2022-10-13T05:27:28.932Z,95471.41
2022-10-13T05:28:25.712Z,95434.22
2022-10-13T05:29:22.418Z,95456.75
2022-10-13T05:30:19.149Z,95415.66
2022-10-13T05:31:17.342Z,95450.31
2022-10-13T05:32:14.045Z,95298.53
2022-10-13T05:33:10.731Z,95454.13
2022-10-13T05:34:07.414Z,95467.31
2022-10-13T05:35:04.597Z,95488.22
2022-10-13T05:36:13.422Z,95353.00
2022-10-13T05:37:10.107Z,95463.91
2022-10-13T05:38:06.817Z,95282.03
2022-10-13T05:39:07.599Z,95457.75
2022-10-13T05:40:04.734Z,95369.22
2022-10-13T05:41:13.253Z,95475.66
2022-10-13T05:42:09.948Z,95436.75
2022-10-13T05:43:06.652Z,95438.16
2022-10-13T05:44:07.994Z,95474.06
2022-10-13T05:45:05.183Z,95479.72
2022-10-13T05:46:03.067Z,95452.19
2022-10-13T05:47:03.639Z,95398.78
2022-10-13T05:48:01.790Z,95419.13
2022-10-13T05:48:58.553Z,95405.16
2022-10-13T05:49:55.672Z,95325.09
2022-10-13T05:50:54.641Z,95501.06
2022-10-13T05:51:56.744Z,95488.81
2022-10-13T05:52:53.430Z,95414.19
2022-10-13T05:53:59.631Z,95507.53
2022-10-13T05:55:02.278Z,95481.53
2022-10-13T05:56:10.305Z,95510.34
2022-10-13T05:57:26.584Z,95473.38
2022-10-13T05:58:24.536Z,95486.00
2022-10-13T05:59:27.140Z,95508.53
2022-10-13T06:00:24.229Z,95529.53
2022-10-13T06:01:26.872Z,95500.66
2022-10-13T06:02:31.492Z,95515.31
2022-10-13T06:03:28.930Z,95335.34
2022-10-13T06:04:32.213Z,95469.31
2022-10-13T06:05:32.786Z,95302.72
2022-10-13T06:06:31.644Z,95485.81
2022-10-13T06:07:31.247Z,95469.31
2022-10-13T06:08:29.405Z,95484.63
2022-10-13T06:09:37.882Z,95503.06
2022-10-13T06:10:36.796Z,95513.38
2022-10-13T06:11:33.574Z,95387.47
2022-10-13T06:12:30.346Z,95466.94
2022-10-13T06:13:27.072Z,95422.28
2022-10-13T06:14:24.125Z,95493.44
2022-10-13T06:15:25.676Z,95505.91
2022-10-13T06:16:24.718Z,95493.84
2022-10-13T06:17:21.739Z,95490.25
2022-10-13T06:18:18.500Z,95484.91
2022-10-13T06:19:15.330Z,95486.97
2022-10-13T06:20:12.792Z,95492.56
2022-10-13T06:21:09.584Z,95494.13
2022-10-13T06:22:07.461Z,95409.84
2022-10-13T06:23:04.786Z,95506.63
2022-10-13T06:24:01.788Z,95440.66
2022-10-13T06:24:58.517Z,95440.47
2022-10-13T06:25:55.245Z,95506.88
2022-10-13T06:26:51.969Z,95504.84
2022-10-13T06:27:48.723Z,95443.72
2022-10-13T06:28:50.033Z,95494.03
2022-10-13T06:29:47.828Z,95494.19
2022-10-13T06:30:49.313Z,95448.97
2022-10-13T06:31:46.007Z,95509.72
2022-10-13T06:32:42.823Z,95410.88
2022-10-13T06:33:40.078Z,95459.97
2022-10-13T06:34:37.371Z,95495.84
2022-10-13T06:35:34.094Z,95512.09
2022-10-13T06:36:31.574Z,95379.81
2022-10-13T06:37:28.282Z,95491.53
2022-10-13T06:38:24.974Z,95427.94
2022-10-13T06:39:21.874Z,95406.03
2022-10-13T06:40:18.600Z,95419.88
2022-10-13T06:41:15.660Z,95484.28
2022-10-13T06:42:12.464Z,95473.31
2022-10-13T06:43:09.588Z,95503.91
2022-10-13T06:44:06.316Z,95416.59
2022-10-13T06:45:03.316Z,95489.47
2022-10-13T06:46:01.045Z,95492.34
2022-10-13T06:46:57.978Z,95497.22
2022-10-13T06:47:55.238Z,95500.50
2022-10-13T06:48:52.549Z,95482.91
2022-10-13T06:49:49.251Z,95494.25
2022-10-13T06:50:45.934Z,95468.72
2022-10-13T06:51:42.647Z,95492.44
2022-10-13T06:52:39.564Z,95472.56
2022-10-13T06:53:36.886Z,95476.63
2022-10-13T06:54:33.598Z,95463.00
2022-10-13T06:55:30.278Z,95477.38
2022-10-13T06:56:27.129Z,95426.19
2022-10-13T06:57:23.836Z,95487.19
2022-10-13T06:58:20.538Z,95457.81
2022-10-13T06:59:18.027Z,95441.63
2022-10-13T07:00:14.854Z,95436.13
2022-10-13T07:01:13.470Z,95434.53
2022-10-13T07:02:11.357Z,95480.69
2022-10-13T07:03:08.047Z,95464.50
2022-10-13T07:04:04.894Z,95493.44
2022-10-13T07:05:01.629Z,95494.66
2022-10-13T07:06:06.175Z,95482.72
2022-10-13T07:07:03.513Z,95477.47
2022-10-13T07:08:00.362Z,95276.38
2022-10-13T07:08:57.178Z,95489.22
2022-10-13T07:09:53.930Z,95490.03
2022-10-13T07:10:50.606Z,95489.59
2022-10-13T07:11:47.706Z,95447.69
2022-10-13T07:12:44.421Z,95493.47
2022-10-13T07:13:46.177Z,95469.72
2022-10-13T07:14:44.055Z,95483.28
2022-10-13T07:15:41.245Z,95458.94
2022-10-13T07:16:37.962Z,95476.38
2022-10-13T07:17:34.657Z,95417.81
2022-10-13T07:18:32.017Z,95462.97
2022-10-13T07:19:28.718Z,95480.59
2022-10-13T07:20:26.085Z,95406.34
2022-10-13T07:21:22.947Z,95479.03
2022-10-13T07:22:19.624Z,95354.69
2022-10-13T07:23:16.329Z,95496.31
2022-10-13T07:24:13.198Z,95381.75
2022-10-13T07:25:10.235Z,95488.53
2022-10-13T07:26:11.478Z,95380.97
2022-10-13T07:27:08.234Z,95489.22
2022-10-13T07:28:05.295Z,95499.38
2022-10-13T07:29:02.119Z,95412.97
2022-10-13T07:29:58.888Z,95429.13
2022-10-13T07:30:55.643Z,95495.38
2022-10-13T07:31:52.380Z,95496.66
2022-10-13T07:32:49.192Z,95476.41
2022-10-13T07:33:49.442Z,95489.59
2022-10-13T07:34:46.264Z,95484.31
2022-10-13T07:35:42.958Z,95501.75
2022-10-13T07:36:41.686Z,95498.28
2022-10-13T07:37:38.759Z,95483.44
2022-10-13T07:38:35.519Z,95493.91
2022-10-13T07:39:32.317Z,95494.41
2022-10-13T07:40:29.040Z,95369.72
2022-10-13T07:41:26.050Z,95396.38
2022-10-13T07:42:22.811Z,95420.66
2022-10-13T07:43:19.621Z,95493.56
2022-10-13T07:44:16.604Z,95495.75
2022-10-13T07:45:13.434Z,95502.03
2022-10-13T07:46:12.925Z,95085.00
2022-10-13T07:47:09.872Z,95408.91
2022-10-13T07:48:06.722Z,95488.78
2022-10-13T07:49:03.491Z,95451.75
2022-10-13T07:50:00.247Z,95457.09
2022-10-13T07:50:57.177Z,95430.56
2022-10-13T07:51:53.926Z,95491.66
2022-10-13T07:52:50.734Z,95499.13
2022-10-13T07:53:48.424Z,95463.88
2022-10-13T07:54:45.190Z,95491.50
2022-10-13T07:55:41.944Z,95485.47
2022-10-13T07:56:38.666Z,95492.59
2022-10-13T07:57:35.433Z,95485.31
2022-10-13T07:58:32.430Z,95450.56
2022-10-13T07:59:29.163Z,95449.31
2022-10-13T08:00:25.866Z,95491.63
2022-10-13T08:01:22.580Z,95464.34
2022-10-13T08:02:19.608Z,95490.75
2022-10-13T08:03:16.748Z,95470.13
2022-10-13T08:04:13.724Z,95292.91
2022-10-13T08:05:10.487Z,95485.72
2022-10-13T08:06:08.281Z,95468.16
2022-10-13T08:07:06.601Z,95374.47
2022-10-13T08:08:03.340Z,95433.75
2022-10-13T08:09:00.681Z,95483.69
2022-10-13T08:09:57.859Z,95417.06
2022-10-13T08:10:55.389Z,95438.91
2022-10-13T08:11:53.967Z,95487.47
2022-10-13T08:12:52.357Z,95480.19
2022-10-13T08:13:51.439Z,95429.56
2022-10-13T08:14:51.222Z,95457.13
2022-10-13T08:15:47.998Z,95318.50
2022-10-13T08:16:48.742Z,95010.22
2022-10-13T08:17:48.387Z,95477.31
2022-10-13T08:18:46.375Z,95466.78
2022-10-13T08:19:43.136Z,95477.22
2022-10-13T08:20:44.966Z,95404.53
2022-10-13T08:21:59.532Z,95462.94
2022-10-13T08:22:57.629Z,95478.78
2022-10-13T08:23:54.403Z,95476.34
2022-10-13T08:24:51.111Z,95427.03
2022-10-13T08:25:47.985Z,95465.28
2022-10-13T08:26:46.694Z,95423.78
2022-10-13T08:27:50.997Z,95425.84
2022-10-13T08:29:02.869Z,95478.03
2022-10-13T08:30:06.329Z,95446.44
2022-10-13T08:31:03.329Z,95429.13
2022-10-13T08:32:00.190Z,95409.94
2022-10-13T08:32:57.079Z,95474.78
2022-10-13T08:33:54.000Z,95470.22
2022-10-13T08:34:50.786Z,95470.31
2022-10-13T08:35:47.508Z,95439.88
2022-10-13T08:36:44.298Z,95392.69
2022-10-13T08:37:41.017Z,95314.38
2022-10-13T08:38:37.732Z,95459.22
2022-10-13T08:39:34.434Z,95463.38
2022-10-13T08:40:31.260Z,95460.94
2022-10-13T08:41:36.592Z,95461.03
2022-10-13T08:42:33.342Z,95471.41
2022-10-13T08:43:30.208Z,95479.69
2022-10-13T08:46:01.058Z,95459.91
2022-10-13T08:47:18.337Z,95452.13
2022-10-13T08:48:36.863Z,95393.91
2022-10-13T08:49:34.150Z,95378.91
2022-10-13T08:50:36.121Z,95445.03
2022-10-13T08:51:33.923Z,95451.75
2022-10-13T08:53:04.050Z,95358.38
2022-10-13T08:54:00.782Z,95453.19
2022-10-13T08:54:58.532Z,95465.94
2022-10-13T08:55:59.558Z,95467.63
2022-10-13T08:56:56.548Z,95427.44
2022-10-13T08:57:53.435Z,95396.31
2022-10-13T08:58:53.061Z,95411.69
2022-10-13T08:59:51.780Z,95397.84
2022-10-13T09:01:12.019Z,95417.59
2022-10-13T09:02:23.832Z,95436.84
2022-10-13T09:03:29.580Z,95438.28
2022-10-13T09:04:37.855Z,95425.88
2022-10-13T09:05:52.867Z,95331.41
2022-10-13T09:06:58.749Z,95414.63
2022-10-13T09:07:59.601Z,95325.56
2022-10-13T09:09:00.289Z,95416.22
2022-10-13T09:09:57.938Z,95435.72
2022-10-13T09:10:54.796Z,95401.63
2022-10-13T09:11:51.613Z,95419.03
2022-10-13T09:12:48.291Z,95439.69
2022-10-13T09:13:44.990Z,95428.63
2022-10-13T09:14:41.751Z,95392.66
2022-10-13T09:15:47.186Z,95386.44
2022-10-13T09:16:46.056Z,95429.75
2022-10-13T09:17:42.795Z,95422.13
2022-10-13T09:18:39.729Z,95318.53
2022-10-13T09:19:36.682Z,95420.66
2022-10-13T09:20:33.643Z,95257.25
2022-10-13T09:21:30.350Z,95404.38
2022-10-13T09:22:30.122Z,95421.59
2022-10-13T09:23:27.517Z,95408.34
2022-10-13T09:24:26.958Z,95347.66
2022-10-13T09:25:23.735Z,95363.84
2022-10-13T09:26:23.490Z,95366.25
2022-10-13T09:27:20.195Z,95400.03
2022-10-13T09:28:25.251Z,95398.88
2022-10-13T09:29:26.693Z,95396.91
2022-10-13T09:30:40.518Z,95369.13
2022-10-13T09:31:38.353Z,95414.88
2022-10-13T09:32:36.122Z,95323.47
2022-10-13T09:33:37.557Z,95391.16
2022-10-13T09:34:34.439Z,95385.53
2022-10-13T09:35:34.374Z,95401.03
2022-10-13T09:36:31.368Z,95413.38
2022-10-13T09:37:28.201Z,95398.31
2022-10-13T09:38:26.230Z,95398.63
2022-10-13T09:39:22.915Z,95373.59
2022-10-13T09:40:21.024Z,95384.16
2022-10-13T09:41:21.962Z,95392.25
2022-10-13T09:42:33.765Z,95358.38
2022-10-13T09:43:45.872Z,95388.09
2022-10-13T09:44:43.164Z,95403.78
2022-10-13T09:45:43.518Z,95396.25
2022-10-13T09:46:53.811Z,95344.03
2022-10-13T09:47:55.031Z,95394.16
2022-10-13T09:49:06.482Z,95406.75
2022-10-13T09:50:18.088Z,95383.09
2022-10-13T09:51:42.016Z,95370.47
2022-10-13T09:52:38.863Z,95371.81
2022-10-13T09:53:40.629Z,95395.97
2022-10-13T09:54:45.643Z,95319.25
2022-10-13T09:55:42.394Z,95387.47
2022-10-13T09:56:50.354Z,95400.44
2022-10-13T09:57:51.623Z,95321.53
2022-10-13T09:59:14.903Z,95372.00
2022-10-13T10:00:21.483Z,95334.19
2022-10-13T10:01:27.676Z,95362.72
2022-10-13T10:02:36.335Z,95346.81
2022-10-13T10:03:38.440Z,95328.41
2022-10-13T10:04:43.227Z,95373.59
2022-10-13T10:05:50.738Z,95377.97
2022-10-13T10:06:47.497Z,95390.63
2022-10-13T10:07:44.500Z,95333.41
2022-10-13T10:09:02.773Z,95360.16
2022-10-13T10:10:06.716Z,95357.03
2022-10-13T10:11:13.558Z,95329.94
2022-10-13T10:12:17.985Z,95373.31
2022-10-13T10:13:15.543Z,95322.97
2022-10-13T10:14:20.931Z,95364.69
2022-10-13T10:15:25.405Z,95333.56
2022-10-13T10:16:38.703Z,95338.56
2022-10-13T10:17:52.123Z,95229.66
2022-10-13T10:18:56.324Z,95365.34
2022-10-13T10:20:24.313Z,95340.28
2022-10-13T10:21:36.352Z,95344.53
2022-10-13T10:22:56.654Z,95307.72
2022-10-13T10:24:12.747Z,95335.69
2022-10-13T10:25:28.094Z,95341.34
2022-10-13T10:27:03.637Z,95339.06
2022-10-13T10:28:31.324Z,95338.44
2022-10-13T10:29:49.237Z,95334.78
2022-10-13T10:30:56.367Z,95353.50
2022-10-13T10:32:19.416Z,95330.28
2022-10-13T10:33:39.190Z,95311.34
2022-10-13T10:34:53.633Z,95280.56
2022-10-13T10:36:02.653Z,95329.88
2022-10-13T10:37:21.120Z,95331.47
2022-10-13T10:38:50.687Z,95334.03
2022-10-13T10:39:59.882Z,95339.50
2022-10-13T10:41:12.319Z,95335.41
2022-10-13T10:42:23.397Z,95334.22
2022-10-13T10:43:32.493Z,95316.50
2022-10-13T10:44:41.071Z,95332.75
2022-10-13T10:45:39.899Z,95319.94
2022-10-13T10:46:42.502Z,95250.09
2022-10-13T10:47:46.676Z,95243.09
2022-10-13T10:48:46.476Z,95298.44
2022-10-13T10:49:43.555Z,95275.41
2022-10-13T10:50:40.933Z,95244.63
2022-10-13T10:51:39.388Z,95297.00
2022-10-13T10:53:11.574Z,95296.53
2022-10-13T10:54:49.135Z,95299.44
2022-10-13T10:55:46.136Z,95291.13
2022-10-13T10:56:54.361Z,95300.41
2022-10-13T10:58:20.310Z,95289.13
2022-10-13T10:59:32.357Z,95290.41
2022-10-13T11:00:29.264Z,95306.00
2022-10-13T11:01:44.850Z,95281.25
2022-10-13T11:02:59.393Z,95279.28
2022-10-13T11:03:59.796Z,95240.47
2022-10-13T11:05:05.361Z,95266.22
2022-10-13T11:06:26.216Z,95244.31
2022-10-13T11:07:22.857Z,95286.44
2022-10-13T11:08:27.167Z,95160.19
2022-10-13T11:09:42.039Z,95283.94
2022-10-13T11:10:38.749Z,95296.34
2022-10-13T11:11:38.422Z,95302.34
2022-10-13T11:12:53.490Z,95280.13
2022-10-13T11:13:57.462Z,95275.81
2022-10-13T11:14:54.088Z,95272.97
2022-10-13T11:15:50.896Z,95259.97
2022-10-13T11:17:06.005Z,95273.81
2022-10-13T11:18:41.125Z,95272.81
2022-10-13T11:19:40.305Z,95280.88
2022-10-13T11:20:40.172Z,95275.72
2022-10-13T11:21:55.035Z,95270.03
2022-10-13T11:23:00.561Z,95262.28
2022-10-13T11:24:01.805Z,95274.28
2022-10-13T11:25:00.477Z,95264.16
2022-10-13T11:26:26.017Z,95215.31
2022-10-13T11:27:27.321Z,95251.75
2022-10-13T11:28:26.109Z,95251.22
2022-10-13T11:29:53.762Z,95260.28
2022-10-13T11:30:55.502Z,95202.22
2022-10-13T11:31:54.812Z,95270.94
2022-10-13T11:32:57.497Z,95172.66
2022-10-13T11:33:57.398Z,95252.44
2022-10-13T11:35:02.115Z,95237.81
2022-10-13T11:36:37.418Z,95232.56
2022-10-13T11:38:06.926Z,95232.84
2022-10-13T11:40:58.256Z,95233.16
2022-10-13T11:42:45.734Z,95235.06
2022-10-13T11:43:48.150Z,95234.56
2022-10-13T11:44:58.057Z,95225.09
2022-10-13T11:45:54.778Z,95225.50
2022-10-13T11:46:51.407Z,95220.66
2022-10-13T11:47:57.173Z,95222.78
2022-10-13T11:48:56.566Z,95227.50
2022-10-13T11:50:14.697Z,95221.47
2022-10-13T11:51:38.018Z,95183.03
2022-10-13T11:53:11.913Z,95220.16
2022-10-13T11:54:08.534Z,95220.94
2022-10-13T11:55:15.063Z,95222.28
2022-10-13T11:56:31.788Z,95177.22
2022-10-13T11:57:31.367Z,95209.97
2022-10-13T11:58:34.113Z,95230.88
2022-10-13T11:59:33.641Z,95228.72
2022-10-13T12:00:30.381Z,95191.75
2022-10-13T12:01:27.259Z,95188.06
2022-10-13T12:02:26.884Z,95231.56
2022-10-13T12:03:32.829Z,95235.09